Time,TemperatureF,DewpointF,PressureIn,WindDirection,WindDirectionDegrees,WindSpeedMPH,WindSpeedGustMPH,Humidity,HourlyPrecipIn,Conditions,Clouds,dailyrainin,SoftwareType,DateUTC
2013-02-18 00:00:00,18.0,-1.0,29.97,WNW,299,5.0,25.0,47,-99.99,,,-99.99,,2013-02-18 05:00:00,
2013-02-18 00:21:00,18.0,-1.0,29.97,WNW,299,5.0,25.0,47,-99.99,,,-99.99,,2013-02-18 05:21:00,
2013-02-18 00:32:00,18.0,-1.0,29.97,WNW,299,5.0,25.0,47,-99.99,,,-99.99,,2013-02-18 05:32:00,
2013-02-18 00:42:00,18.0,-1.0,29.97,WNW,299,5.0,25.0,47,-99.99,,,-99.99,,2013-02-18 05:42:00,
2013-02-18 00:52:00,18.0,-1.0,29.97,WNW,299,5.0,25.0,47,-99.99,,,-99.99,,2013-02-18 05:52:00,
2013-02-18 01:00:00,18.0,-1.0,30.00,NNW,346,12.0,23.0,46,-99.99,,,-99.99,,2013-02-18 06:00:00,
2013-02-18 01:32:00,18.0,-1.0,30.00,NNW,346,12.0,23.0,46,-99.99,,,-99.99,,2013-02-18 06:32:00,
2013-02-18 01:42:00,18.0,-1.0,30.00,NNW,346,12.0,23.0,46,-99.99,,,-99.99,,2013-02-18 06:42:00,
2013-02-18 01:52:00,18.0,-1.0,30.00,NNW,346,12.0,23.0,46,-99.99,,,-99.99,,2013-02-18 06:52:00,
2013-02-18 02:00:00,18.0,-1.0,30.00,NW,315,9.0,23.0,46,-99.99,,,-99.99,,2013-02-18 07:00:00,
2013-02-18 02:22:00,18.0,-1.0,30.00,NW,315,9.0,23.0,46,-99.99,,,-99.99,,2013-02-18 07:22:00,
2013-02-18 02:32:00,18.0,-1.0,30.00,NW,315,9.0,23.0,46,-99.99,,,-99.99,,2013-02-18 07:32:00,
2013-02-18 02:42:00,18.0,-1.0,30.00,NW,315,9.0,23.0,46,-99.99,,,-99.99,,2013-02-18 07:42:00,
2013-02-18 02:52:00,18.0,-1.0,30.00,NW,315,9.0,23.0,46,-99.99,,,-99.99,,2013-02-18 07:52:00,
2013-02-18 03:00:00,17.0,0.0,30.03,WNW,293,7.0,24.0,49,-99.99,,,-99.99,,2013-02-18 08:00:00,
2013-02-18 03:22:00,17.0,0.0,30.03,WNW,293,7.0,24.0,49,-99.99,,,-99.99,,2013-02-18 08:22:00,
2013-02-18 03:33:00,17.0,0.0,30.03,WNW,293,7.0,24.0,49,-99.99,,,-99.99,,2013-02-18 08:33:00,
2013-02-18 03:42:00,17.0,0.0,30.03,WNW,293,7.0,24.0,49,-99.99,,,-99.99,,2013-02-18 08:42:00,
2013-02-18 03:52:00,17.0,0.0,30.03,WNW,293,7.0,24.0,49,-99.99,,,-99.99,,2013-02-18 08:52:00,
2013-02-18 04:00:00,17.0,-1.0,30.06,NW,318,16.0,24.0,48,-99.99,,,-99.99,,2013-02-18 09:00:00,
2013-02-18 04:22:00,17.0,-1.0,30.06,NW,318,16.0,24.0,48,-99.99,,,-99.99,,2013-02-18 09:22:00,
2013-02-18 04:32:00,17.0,-1.0,30.06,NW,318,16.0,24.0,48,-99.99,,,-99.99,,2013-02-18 09:32:00,
2013-02-18 04:42:00,17.0,-1.0,30.06,NW,318,16.0,24.0,48,-99.99,,,-99.99,,2013-02-18 09:42:00,
2013-02-18 04:52:00,17.0,-1.0,30.06,NW,318,16.0,24.0,48,-99.99,,,-99.99,,2013-02-18 09:52:00,
2013-02-18 05:00:00,17.0,-1.0,30.09,NNW,344,11.0,20.0,47,-99.99,,,-99.99,,2013-02-18 10:00:00,
2013-02-18 05:22:00,17.0,-1.0,30.09,NNW,344,11.0,20.0,47,-99.99,,,-99.99,,2013-02-18 10:22:00,
2013-02-18 05:32:00,17.0,-1.0,30.09,NNW,344,11.0,20.0,47,-99.99,,,-99.99,,2013-02-18 10:32:00,
2013-02-18 05:42:00,17.0,-1.0,30.09,NNW,344,11.0,20.0,47,-99.99,,,-99.99,,2013-02-18 10:42:00,
2013-02-18 05:53:00,17.0,-1.0,30.09,NNW,344,11.0,20.0,47,-99.99,,,-99.99,,2013-02-18 10:53:00,
2013-02-18 06:00:00,17.0,0.0,30.12,North,353,14.0,18.0,51,-99.99,,,-99.99,,2013-02-18 11:00:00,
2013-02-18 06:33:00,17.0,0.0,30.12,North,353,14.0,18.0,51,-99.99,,,-99.99,,2013-02-18 11:33:00,
2013-02-18 06:43:00,17.0,0.0,30.12,North,353,14.0,18.0,51,-99.99,,,-99.99,,2013-02-18 11:43:00,
2013-02-18 06:53:00,17.0,0.0,30.12,North,353,14.0,18.0,51,-99.99,,,-99.99,,2013-02-18 11:53:00,
2013-02-18 07:00:00,17.0,0.0,30.15,NNW,342,8.0,25.0,51,-99.99,,,-99.99,,2013-02-18 12:00:00,
2013-02-18 07:22:00,17.0,0.0,30.15,NNW,342,8.0,25.0,51,-99.99,,,-99.99,,2013-02-18 12:22:00,
2013-02-18 07:32:00,17.0,0.0,30.15,NNW,342,8.0,25.0,51,-99.99,,,-99.99,,2013-02-18 12:32:00,
2013-02-18 07:42:00,17.0,0.0,30.15,NNW,342,8.0,25.0,51,-99.99,,,-99.99,,2013-02-18 12:42:00,
2013-02-18 07:54:00,17.0,0.0,30.15,NNW,342,8.0,25.0,51,-99.99,,,-99.99,,2013-02-18 12:54:00,
2013-02-18 08:00:00,18.0,1.0,30.18,NNW,327,14.0,21.0,49,-99.99,,,-99.99,,2013-02-18 13:00:00,
2013-02-18 08:23:00,18.0,1.0,30.18,NNW,327,14.0,21.0,49,-99.99,,,-99.99,,2013-02-18 13:23:00,
2013-02-18 08:33:00,18.0,1.0,30.18,NNW,327,14.0,21.0,49,-99.99,,,-99.99,,2013-02-18 13:33:00,
2013-02-18 08:42:00,18.0,1.0,30.18,NNW,327,14.0,21.0,49,-99.99,,,-99.99,,2013-02-18 13:42:00,
2013-02-18 08:53:00,18.0,1.0,30.18,NNW,327,14.0,21.0,49,-99.99,,,-99.99,,2013-02-18 13:53:00,
2013-02-18 09:00:00,21.0,2.0,30.18,WNW,282,4.0,16.0,45,-99.99,,,-99.99,,2013-02-18 14:00:00,
2013-02-18 09:34:00,21.0,2.0,30.18,WNW,282,4.0,16.0,45,-99.99,,,-99.99,,2013-02-18 14:34:00,
2013-02-18 09:42:00,21.0,2.0,30.18,WNW,282,4.0,16.0,45,-99.99,,,-99.99,,2013-02-18 14:42:00,
2013-02-18 09:54:00,21.0,2.0,30.18,WNW,282,4.0,16.0,45,-99.99,,,-99.99,,2013-02-18 14:54:00,
2013-02-18 10:00:00,23.0,1.0,30.21,WNW,292,7.0,17.0,39,-99.99,,,-99.99,,2013-02-18 15:00:00,
2013-02-18 10:22:00,23.0,1.0,30.21,WNW,292,7.0,17.0,39,-99.99,,,-99.99,,2013-02-18 15:22:00,
2013-02-18 10:32:00,23.0,1.0,30.21,WNW,292,7.0,17.0,39,-99.99,,,-99.99,,2013-02-18 15:32:00,
2013-02-18 10:42:00,23.0,1.0,30.21,WNW,292,7.0,17.0,39,-99.99,,,-99.99,,2013-02-18 15:42:00,
2013-02-18 10:53:00,23.0,1.0,30.21,WNW,292,7.0,17.0,39,-99.99,,,-99.99,,2013-02-18 15:53:00,
2013-02-18 11:00:00,27.0,4.0,30.21,West,271,9.0,17.0,38,-99.99,,,-99.99,,2013-02-18 16:00:00,
2013-02-18 11:22:00,27.0,4.0,30.21,West,271,9.0,17.0,38,-99.99,,,-99.99,,2013-02-18 16:22:00,
2013-02-18 11:33:00,27.0,4.0,30.21,West,271,9.0,17.0,38,-99.99,,,-99.99,,2013-02-18 16:33:00,
2013-02-18 11:43:00,27.0,4.0,30.21,West,271,9.0,17.0,38,-99.99,,,-99.99,,2013-02-18 16:43:00,
2013-02-18 11:53:00,27.0,4.0,30.21,West,271,9.0,17.0,38,-99.99,,,-99.99,,2013-02-18 16:53:00,
2013-02-18 12:00:00,28.0,3.0,30.21,NNW,339,6.0,20.0,35,-99.99,,,-99.99,,2013-02-18 17:00:00,
2013-02-18 12:22:00,28.0,3.0,30.21,NNW,339,6.0,20.0,35,-99.99,,,-99.99,,2013-02-18 17:22:00,
2013-02-18 12:33:00,28.0,3.0,30.21,NNW,339,6.0,20.0,35,-99.99,,,-99.99,,2013-02-18 17:33:00,
2013-02-18 12:43:00,28.0,3.0,30.21,NNW,339,6.0,20.0,35,-99.99,,,-99.99,,2013-02-18 17:43:00,
2013-02-18 12:53:00,28.0,3.0,30.21,NNW,339,6.0,20.0,35,-99.99,,,-99.99,,2013-02-18 17:53:00,
2013-02-18 13:00:00,30.0,4.0,30.18,WNW,290,6.0,19.0,33,-99.99,,,-99.99,,2013-02-18 18:00:00,
2013-02-18 13:23:00,30.0,4.0,30.18,WNW,290,6.0,19.0,33,-99.99,,,-99.99,,2013-02-18 18:23:00,
2013-02-18 13:33:00,30.0,4.0,30.18,WNW,290,6.0,19.0,33,-99.99,,,-99.99,,2013-02-18 18:33:00,
2013-02-18 13:43:00,30.0,4.0,30.18,WNW,290,6.0,19.0,33,-99.99,,,-99.99,,2013-02-18 18:43:00,
2013-02-18 13:53:00,30.0,4.0,30.18,WNW,290,6.0,19.0,33,-99.99,,,-99.99,,2013-02-18 18:53:00,
2013-02-18 14:00:00,32.0,6.0,30.15,WNW,293,7.0,20.0,33,-99.99,,,-99.99,,2013-02-18 19:00:00,
2013-02-18 14:23:00,32.0,6.0,30.15,WNW,293,7.0,20.0,33,-99.99,,,-99.99,,2013-02-18 19:23:00,
2013-02-18 14:34:00,32.0,6.0,30.15,WNW,293,7.0,20.0,33,-99.99,,,-99.99,,2013-02-18 19:34:00,
2013-02-18 14:43:00,32.0,6.0,30.15,WNW,293,7.0,20.0,33,-99.99,,,-99.99,,2013-02-18 19:43:00,
2013-02-18 14:53:00,32.0,6.0,30.15,WNW,293,7.0,20.0,33,-99.99,,,-99.99,,2013-02-18 19:53:00,
2013-02-18 15:00:00,34.0,5.0,30.15,NNW,341,11.0,19.0,29,-99.99,,,-99.99,,2013-02-18 20:00:00,
2013-02-18 15:23:00,34.0,5.0,30.15,NNW,341,11.0,19.0,29,-99.99,,,-99.99,,2013-02-18 20:23:00,
2013-02-18 15:33:00,34.0,5.0,30.15,NNW,341,11.0,19.0,29,-99.99,,,-99.99,,2013-02-18 20:33:00,
2013-02-18 15:53:00,34.0,5.0,30.15,NNW,341,11.0,19.0,29,-99.99,,,-99.99,,2013-02-18 20:53:00,
2013-02-18 16:00:00,35.0,6.0,30.15,NW,316,4.0,19.0,30,-99.99,,,-99.99,,2013-02-18 21:00:00,
2013-02-18 16:22:00,35.0,6.0,30.15,NW,316,4.0,19.0,30,-99.99,,,-99.99,,2013-02-18 21:22:00,
2013-02-18 16:33:00,35.0,6.0,30.15,NW,316,4.0,19.0,30,-99.99,,,-99.99,,2013-02-18 21:33:00,
2013-02-18 16:43:00,35.0,6.0,30.15,NW,316,4.0,19.0,30,-99.99,,,-99.99,,2013-02-18 21:43:00,
2013-02-18 16:53:00,35.0,6.0,30.15,NW,316,4.0,19.0,30,-99.99,,,-99.99,,2013-02-18 21:53:00,
2013-02-18 17:00:00,35.0,3.0,30.15,WNW,284,9.0,15.0,26,-99.99,,,-99.99,,2013-02-18 22:00:00,
2013-02-18 17:23:00,35.0,3.0,30.15,WNW,284,9.0,15.0,26,-99.99,,,-99.99,,2013-02-18 22:23:00,
2013-02-18 17:33:00,35.0,3.0,30.15,WNW,284,9.0,15.0,26,-99.99,,,-99.99,,2013-02-18 22:33:00,
2013-02-18 17:43:00,35.0,3.0,30.15,WNW,284,9.0,15.0,26,-99.99,,,-99.99,,2013-02-18 22:43:00,
2013-02-18 17:54:00,35.0,3.0,30.15,WNW,284,9.0,15.0,26,-99.99,,,-99.99,,2013-02-18 22:54:00,
2013-02-18 18:00:00,32.0,4.0,30.15,West,274,0.0,10.0,29,-99.99,,,-99.99,,2013-02-18 23:00:00,
2013-02-18 18:23:00,32.0,4.0,30.15,West,274,0.0,10.0,29,-99.99,,,-99.99,,2013-02-18 23:23:00,
2013-02-18 18:34:00,32.0,4.0,30.15,West,274,0.0,10.0,29,-99.99,,,-99.99,,2013-02-18 23:34:00,
2013-02-18 18:43:00,32.0,4.0,30.15,West,274,0.0,10.0,29,-99.99,,,-99.99,,2013-02-18 23:43:00,
2013-02-18 18:54:00,32.0,4.0,30.15,West,274,0.0,10.0,29,-99.99,,,-99.99,,2013-02-18 23:54:00,
2013-02-18 19:00:00,29.0,8.0,30.18,SSW,211,0.0,5.0,41,-99.99,,,-99.99,,2013-02-19 00:00:00,
2013-02-18 19:35:00,29.0,8.0,30.18,SSW,211,0.0,5.0,41,-99.99,,,-99.99,,2013-02-19 00:35:00,
2013-02-18 19:44:00,29.0,8.0,30.18,SSW,211,0.0,5.0,41,-99.99,,,-99.99,,2013-02-19 00:44:00,
2013-02-18 19:55:00,29.0,8.0,30.18,SSW,211,0.0,5.0,41,-99.99,,,-99.99,,2013-02-19 00:55:00,
2013-02-18 20:00:00,30.0,9.0,30.18,WSW,252,2.0,4.0,41,-99.99,,,-99.99,,2013-02-19 01:00:00,
2013-02-18 20:25:00,30.0,9.0,30.18,WSW,252,2.0,4.0,41,-99.99,,,-99.99,,2013-02-19 01:25:00,
2013-02-18 20:35:00,30.0,9.0,30.18,WSW,252,2.0,4.0,41,-99.99,,,-99.99,,2013-02-19 01:35:00,
2013-02-18 20:45:00,30.0,9.0,30.18,WSW,252,2.0,4.0,41,-99.99,,,-99.99,,2013-02-19 01:45:00,
2013-02-18 20:56:00,30.0,9.0,30.18,WSW,252,2.0,4.0,41,-99.99,,,-99.99,,2013-02-19 01:56:00,
2013-02-18 21:00:00,31.0,8.0,30.18,SW,224,0.0,6.0,39,-99.99,,,-99.99,,2013-02-19 02:00:00,
2013-02-18 21:23:00,31.0,8.0,30.18,SW,224,0.0,6.0,39,-99.99,,,-99.99,,2013-02-19 02:23:00,
2013-02-18 21:35:00,31.0,8.0,30.18,SW,224,0.0,6.0,39,-99.99,,,-99.99,,2013-02-19 02:35:00,
2013-02-18 21:44:00,31.0,8.0,30.18,SW,224,0.0,6.0,39,-99.99,,,-99.99,,2013-02-19 02:44:00,
2013-02-18 21:55:00,31.0,8.0,30.18,SW,224,0.0,6.0,39,-99.99,,,-99.99,,2013-02-19 02:55:00,
2013-02-18 22:00:00,29.0,12.0,30.18,South,171,0.0,3.0,51,-99.99,,,-99.99,,2013-02-19 03:00:00,
2013-02-18 22:25:00,29.0,12.0,30.18,South,171,0.0,3.0,51,-99.99,,,-99.99,,2013-02-19 03:25:00,
2013-02-18 22:35:00,29.0,12.0,30.18,South,171,0.0,3.0,51,-99.99,,,-99.99,,2013-02-19 03:35:00,
2013-02-18 22:45:00,29.0,12.0,30.18,South,171,0.0,3.0,51,-99.99,,,-99.99,,2013-02-19 03:45:00,
2013-02-18 22:55:00,29.0,12.0,30.18,South,171,0.0,3.0,51,-99.99,,,-99.99,,2013-02-19 03:55:00,
2013-02-18 23:00:00,31.0,11.0,30.18,SW,215,0.0,7.0,44,-99.99,,,-99.99,,2013-02-19 04:00:00,
2013-02-18 23:24:00,31.0,11.0,30.18,SW,215,0.0,7.0,44,-99.99,,,-99.99,,2013-02-19 04:24:00,
2013-02-18 23:34:00,31.0,11.0,30.18,SW,215,0.0,7.0,44,-99.99,,,-99.99,,2013-02-19 04:34:00,
2013-02-18 23:45:00,31.0,11.0,30.18,SW,215,0.0,7.0,44,-99.99,,,-99.99,,2013-02-19 04:45:00,
2013-02-18 23:55:00,31.0,11.0,30.18,SW,215,0.0,7.0,44,-99.99,,,-99.99,,2013-02-19 04:55:00,